createdAt,value
2023-02-02T00:00:30.166Z,3.90
2023-02-02T00:02:57.002Z,3.90
2023-02-02T00:05:24.064Z,4.00
2023-02-02T00:07:51.442Z,4.00
2023-02-02T00:10:18.199Z,4.10
2023-02-02T00:12:44.925Z,4.10
2023-02-02T00:15:11.798Z,4.10
2023-02-02T00:17:38.493Z,3.90
2023-02-02T00:20:05.431Z,3.50
2023-02-02T00:22:32.118Z,3.00
2023-02-02T00:24:58.826Z,2.50
2023-02-02T00:27:25.506Z,2.00
2023-02-02T00:29:53.687Z,1.60
2023-02-02T00:32:20.614Z,1.40
2023-02-02T00:34:47.358Z,1.20
2023-02-02T00:37:14.113Z,1.10
2023-02-02T00:39:40.802Z,1.00
2023-02-02T00:42:11.916Z,1.00
2023-02-02T00:44:57.231Z,1.00
2023-02-02T00:47:24.020Z,0.90
2023-02-02T00:49:50.715Z,0.90
2023-02-02T00:52:17.415Z,0.90
2023-02-02T00:54:44.134Z,0.90
2023-02-02T00:57:14.476Z,0.80
2023-02-02T00:59:42.220Z,0.80
2023-02-02T01:02:12.978Z,0.80
2023-02-02T01:04:39.864Z,0.90
2023-02-02T01:07:06.746Z,0.90
2023-02-02T01:09:33.461Z,0.90
2023-02-02T01:12:00.223Z,0.90
2023-02-02T01:14:27.199Z,0.90
2023-02-02T01:16:53.880Z,0.90
2023-02-02T01:19:20.634Z,0.90
2023-02-02T01:21:47.314Z,0.90
2023-02-02T01:24:14.369Z,0.90
2023-02-02T01:26:41.227Z,0.90
2023-02-02T01:29:08.124Z,0.90
2023-02-02T01:31:35.013Z,0.80
2023-02-02T01:34:01.761Z,0.80
2023-02-02T01:36:29.361Z,0.80
2023-02-02T01:38:56.237Z,0.80
2023-02-02T01:41:25.745Z,0.80
2023-02-02T01:43:58.545Z,0.90
2023-02-02T01:46:27.831Z,0.90
2023-02-02T01:49:09.676Z,0.90
2023-02-02T01:52:02.663Z,0.90
2023-02-02T01:54:36.228Z,1.00
2023-02-02T01:57:09.530Z,1.00
2023-02-02T01:59:36.747Z,1.00
2023-02-02T02:02:04.258Z,1.00
2023-02-02T02:04:32.125Z,0.90
2023-02-02T02:07:00.842Z,1.00
2023-02-02T02:09:27.529Z,1.00
2023-02-02T02:11:54.617Z,1.00
2023-02-02T02:14:41.176Z,0.90
2023-02-02T02:17:28.150Z,1.00
2023-02-02T02:20:33.486Z,1.00
2023-02-02T02:23:49.291Z,0.90
2023-02-02T02:26:50.360Z,1.00
2023-02-02T02:29:44.896Z,0.90
2023-02-02T02:32:31.369Z,0.90
2023-02-02T02:35:31.502Z,0.90
2023-02-02T02:38:01.174Z,0.90
2023-02-02T02:40:45.732Z,1.00
2023-02-02T02:43:18.711Z,1.00
2023-02-02T02:45:46.138Z,1.00
2023-02-02T02:48:12.952Z,0.90
2023-02-02T02:50:39.830Z,1.00
2023-02-02T02:53:13.049Z,1.00
2023-02-02T02:56:21.072Z,1.00
2023-02-02T02:58:54.894Z,1.00
2023-02-02T03:01:38.126Z,1.00
2023-02-02T03:04:34.319Z,0.90
2023-02-02T03:07:07.364Z,1.00
2023-02-02T03:09:39.253Z,0.90
2023-02-02T03:12:06.258Z,0.90
2023-02-02T03:14:37.235Z,0.90
2023-02-02T03:17:04.044Z,0.90
2023-02-02T03:19:30.972Z,0.90
2023-02-02T03:21:57.687Z,0.90
2023-02-02T03:24:24.386Z,0.90
2023-02-02T03:26:51.821Z,0.90
2023-02-02T03:29:19.024Z,0.90
2023-02-02T03:31:46.702Z,0.90
2023-02-02T03:34:13.467Z,0.90
2023-02-02T03:36:40.167Z,1.00
2023-02-02T03:39:06.882Z,1.00
2023-02-02T03:41:33.647Z,1.00
2023-02-02T03:44:00.341Z,1.00
2023-02-02T03:46:27.789Z,1.00
2023-02-02T03:48:54.605Z,1.00
2023-02-02T03:51:21.328Z,1.00
2023-02-02T03:53:48.117Z,1.00
2023-02-02T03:56:15.674Z,1.00
2023-02-02T03:58:42.481Z,1.00
2023-02-02T04:01:12.758Z,1.00
2023-02-02T04:03:39.622Z,0.90
2023-02-02T04:06:06.533Z,0.80
2023-02-02T04:08:34.087Z,0.90
2023-02-02T04:11:01.271Z,0.90
2023-02-02T04:13:28.191Z,1.00
2023-02-02T04:15:59.884Z,0.90
2023-02-02T04:18:26.933Z,0.80
2023-02-02T04:21:00.621Z,0.80
2023-02-02T04:23:29.010Z,0.80
2023-02-02T04:25:56.496Z,0.80
2023-02-02T04:28:26.463Z,0.90
2023-02-02T04:30:55.001Z,0.90
2023-02-02T04:33:23.771Z,0.90
2023-02-02T04:35:50.547Z,0.80
2023-02-02T04:38:17.359Z,0.90
2023-02-02T04:40:46.268Z,0.80
2023-02-02T04:43:13.263Z,0.80
2023-02-02T04:45:40.202Z,0.80
2023-02-02T04:48:06.958Z,0.80
2023-02-02T04:50:33.957Z,0.90
2023-02-02T04:53:00.851Z,0.90
2023-02-02T04:55:27.658Z,0.90
2023-02-02T04:57:54.404Z,1.00
2023-02-02T05:00:21.344Z,1.00
2023-02-02T05:02:48.114Z,1.00
2023-02-02T05:05:15.115Z,1.00
2023-02-02T05:07:41.963Z,1.00
2023-02-02T05:10:09.791Z,1.10
2023-02-02T05:12:36.678Z,1.10
2023-02-02T05:15:05.386Z,1.10
2023-02-02T05:17:32.403Z,1.10
2023-02-02T05:19:59.168Z,1.00
2023-02-02T05:22:26.020Z,1.10
2023-02-02T05:24:52.766Z,1.10
2023-02-02T05:27:20.633Z,1.10
2023-02-02T05:29:48.204Z,1.10
2023-02-02T05:32:15.263Z,1.10
2023-02-02T05:34:45.058Z,1.10
2023-02-02T05:37:11.751Z,1.10
2023-02-02T05:39:38.523Z,1.10
2023-02-02T05:42:05.378Z,1.10
2023-02-02T05:44:32.317Z,1.10
2023-02-02T05:46:59.129Z,1.10
2023-02-02T05:49:26.099Z,1.10
2023-02-02T05:51:57.087Z,1.10
2023-02-02T05:54:24.487Z,1.20
2023-02-02T05:56:54.493Z,1.20
2023-02-02T05:59:21.692Z,1.20
2023-02-02T06:01:49.222Z,1.20
2023-02-02T06:04:16.064Z,1.20
2023-02-02T06:06:42.934Z,1.30
2023-02-02T06:09:10.428Z,1.30
2023-02-02T06:11:37.272Z,1.30
2023-02-02T06:14:04.061Z,1.20
2023-02-02T06:16:30.830Z,1.20
2023-02-02T06:18:57.581Z,1.10
2023-02-02T06:21:24.762Z,1.10
2023-02-02T06:23:52.219Z,1.20
2023-02-02T06:26:19.203Z,1.20
2023-02-02T06:28:50.533Z,1.20
2023-02-02T06:31:19.502Z,1.20
2023-02-02T06:33:56.691Z,1.20
2023-02-02T06:36:25.742Z,1.20
2023-02-02T06:38:54.601Z,1.30
2023-02-02T06:41:21.761Z,1.30
2023-02-02T06:43:48.964Z,1.20
2023-02-02T06:46:16.717Z,1.20
2023-02-02T06:48:43.625Z,1.10
2023-02-02T06:51:10.415Z,1.20
2023-02-02T06:53:37.531Z,1.20
2023-02-02T06:56:06.757Z,1.10
2023-02-02T06:58:34.526Z,1.10
2023-02-02T07:01:07.277Z,1.00
2023-02-02T07:03:34.874Z,1.00
2023-02-02T07:06:29.872Z,1.00
2023-02-02T07:09:02.507Z,1.00
2023-02-02T07:11:38.460Z,1.10
2023-02-02T07:14:11.123Z,1.10
2023-02-02T07:16:38.484Z,1.10
2023-02-02T07:19:05.368Z,1.10
2023-02-02T07:21:36.353Z,1.10
2023-02-02T07:24:04.641Z,1.10
2023-02-02T07:26:31.442Z,1.10
2023-02-02T07:28:58.345Z,1.10
2023-02-02T07:31:26.676Z,1.10
2023-02-02T07:33:54.266Z,1.10
2023-02-02T07:36:23.758Z,1.10
2023-02-02T07:38:54.133Z,1.10
2023-02-02T07:41:21.675Z,1.10
2023-02-02T07:43:48.786Z,1.10
2023-02-02T07:46:17.255Z,1.20
2023-02-02T07:48:44.128Z,1.20
2023-02-02T07:51:16.137Z,1.20
2023-02-02T07:53:47.587Z,1.20
2023-02-02T07:56:18.194Z,1.30
2023-02-02T07:58:45.560Z,1.20
2023-02-02T08:01:14.771Z,1.20
2023-02-02T08:03:42.886Z,1.10
2023-02-02T08:06:21.866Z,1.10
2023-02-02T08:08:49.391Z,1.20
2023-02-02T08:11:20.606Z,1.20
2023-02-02T08:13:54.437Z,1.20
2023-02-02T08:16:22.033Z,1.20
2023-02-02T08:18:49.575Z,1.20
2023-02-02T08:21:17.313Z,1.20
2023-02-02T08:23:45.620Z,1.30
2023-02-02T08:26:17.855Z,1.30
2023-02-02T08:28:47.868Z,1.30
2023-02-02T08:31:24.119Z,1.30
2023-02-02T08:33:51.563Z,1.30
2023-02-02T08:36:20.735Z,1.30
2023-02-02T08:38:48.064Z,1.30
2023-02-02T08:41:17.632Z,1.30
2023-02-02T08:43:44.625Z,1.30
2023-02-02T08:46:14.493Z,1.30
2023-02-02T08:48:41.497Z,1.30
2023-02-02T08:51:11.246Z,1.30
2023-02-02T08:53:38.458Z,1.30
2023-02-02T08:56:07.579Z,1.30
2023-02-02T08:58:34.828Z,1.40
2023-02-02T09:01:06.705Z,1.40
2023-02-02T09:03:34.062Z,1.50
2023-02-02T09:06:05.750Z,1.50
2023-02-02T09:08:33.480Z,1.40
2023-02-02T09:11:05.270Z,1.50
2023-02-02T09:13:32.030Z,1.40
2023-02-02T09:16:03.070Z,1.50
2023-02-02T09:18:30.148Z,1.50
2023-02-02T09:21:01.177Z,1.50
2023-02-02T09:23:31.122Z,1.50
2023-02-02T09:25:58.344Z,1.50
2023-02-02T09:28:25.223Z,1.40
2023-02-02T09:30:52.037Z,1.40
2023-02-02T09:33:18.799Z,1.50
2023-02-02T09:35:45.556Z,1.50
2023-02-02T09:38:12.331Z,1.60
2023-02-02T09:40:40.687Z,1.80
2023-02-02T09:43:26.047Z,1.80
2023-02-02T09:46:26.665Z,1.80
2023-02-02T09:49:02.524Z,1.70
2023-02-02T09:51:36.348Z,1.80
2023-02-02T09:54:20.928Z,1.80
2023-02-02T09:56:51.289Z,1.80
2023-02-02T09:59:29.246Z,1.90
2023-02-02T10:02:01.916Z,1.80
2023-02-02T10:04:41.763Z,1.80
2023-02-02T10:07:15.210Z,1.60
2023-02-02T10:09:47.988Z,1.50
2023-02-02T10:12:37.072Z,1.50
2023-02-02T10:15:30.541Z,1.60
2023-02-02T10:18:08.660Z,1.60
2023-02-02T10:20:47.928Z,1.50
2023-02-02T10:23:35.046Z,1.50
2023-02-02T10:26:04.840Z,1.50
2023-02-02T10:28:54.803Z,1.60
2023-02-02T10:31:57.521Z,1.50
2023-02-02T10:34:42.451Z,1.60
2023-02-02T10:37:28.492Z,1.70
2023-02-02T10:40:14.806Z,1.70
2023-02-02T10:43:22.000Z,1.70
2023-02-02T10:45:51.331Z,1.60
2023-02-02T10:48:22.077Z,1.50
2023-02-02T10:50:55.127Z,1.50
2023-02-02T10:53:25.779Z,1.50
2023-02-02T10:56:02.937Z,1.50
2023-02-02T10:58:37.899Z,1.40
2023-02-02T11:01:07.824Z,1.50
2023-02-02T11:03:34.680Z,1.60
2023-02-02T11:06:23.163Z,1.60
2023-02-02T11:08:59.448Z,1.50
2023-02-02T11:11:28.122Z,1.60
2023-02-02T11:14:02.340Z,1.60
2023-02-02T11:16:42.538Z,1.60
2023-02-02T11:19:19.607Z,1.60
2023-02-02T11:21:53.465Z,1.70
2023-02-02T11:24:49.518Z,1.60
2023-02-02T11:27:21.101Z,1.70
2023-02-02T11:29:56.068Z,1.70
2023-02-02T11:32:28.821Z,1.80
2023-02-02T11:35:18.297Z,1.80
2023-02-02T11:38:14.595Z,1.60
2023-02-02T11:40:52.099Z,1.60
2023-02-02T11:43:40.921Z,1.60
2023-02-02T11:46:28.945Z,1.60
2023-02-02T11:49:13.386Z,1.70
2023-02-02T11:51:40.162Z,1.70
2023-02-02T11:54:41.175Z,1.70
2023-02-02T11:57:09.988Z,1.70
2023-02-02T11:59:42.489Z,1.70
2023-02-02T12:02:28.054Z,1.70
2023-02-02T12:05:13.285Z,1.80
2023-02-02T12:07:41.240Z,1.80
2023-02-02T12:10:25.720Z,1.80
2023-02-02T12:13:05.943Z,1.70
2023-02-02T12:15:44.295Z,1.70
2023-02-02T12:18:40.883Z,1.80
2023-02-02T12:21:16.664Z,1.80
2023-02-02T12:24:20.307Z,1.80
2023-02-02T12:26:58.249Z,1.80
2023-02-02T12:29:34.800Z,1.80
2023-02-02T12:32:17.580Z,1.80
2023-02-02T12:35:08.667Z,1.80
2023-02-02T12:38:02.428Z,1.80
2023-02-02T12:40:39.259Z,1.80
2023-02-02T12:43:14.844Z,1.80
2023-02-02T12:46:10.651Z,1.80
2023-02-02T12:48:41.142Z,1.80
2023-02-02T12:51:36.061Z,1.80
2023-02-02T12:54:34.380Z,1.90
2023-02-02T12:57:04.906Z,1.90
2023-02-02T13:00:01.690Z,1.90
2023-02-02T13:02:37.616Z,1.90
2023-02-02T13:05:19.162Z,1.90
2023-02-02T13:07:52.310Z,1.80
2023-02-02T13:10:27.441Z,1.80
2023-02-02T13:12:59.984Z,1.70
2023-02-02T13:15:35.309Z,1.70
2023-02-02T13:18:11.726Z,1.80
2023-02-02T13:20:45.874Z,1.80
2023-02-02T13:23:20.740Z,1.80
2023-02-02T13:25:52.392Z,1.80
2023-02-02T13:28:37.622Z,1.80
2023-02-02T13:31:11.645Z,1.80
2023-02-02T13:33:39.953Z,1.80
2023-02-02T13:36:28.488Z,1.80
2023-02-02T13:39:02.160Z,1.80
2023-02-02T13:41:31.345Z,1.90
2023-02-02T13:44:09.617Z,1.90
2023-02-02T13:46:49.474Z,1.80
2023-02-02T13:49:28.901Z,1.90
2023-02-02T13:52:01.499Z,1.90
2023-02-02T13:55:00.406Z,1.90
2023-02-02T13:57:44.791Z,1.90
2023-02-02T14:00:22.608Z,1.90
2023-02-02T14:03:27.353Z,1.80
2023-02-02T14:06:10.230Z,1.80
2023-02-02T14:08:37.859Z,1.70
2023-02-02T14:11:06.945Z,1.70
2023-02-02T14:14:03.444Z,1.70
2023-02-02T14:16:32.987Z,1.60
2023-02-02T14:19:14.206Z,1.60
2023-02-02T14:21:40.895Z,1.60
2023-02-02T14:24:26.394Z,1.60
2023-02-02T14:27:00.139Z,1.60
2023-02-02T14:29:32.707Z,1.50
2023-02-02T14:32:02.408Z,1.50
2023-02-02T14:34:35.120Z,1.60
2023-02-02T14:37:16.818Z,1.50
2023-02-02T14:40:05.340Z,1.50
2023-02-02T14:43:24.159Z,1.50
2023-02-02T14:46:12.584Z,1.50
2023-02-02T14:48:41.686Z,1.40
2023-02-02T14:51:17.766Z,1.40
2023-02-02T14:54:08.566Z,1.40
2023-02-02T14:56:45.357Z,1.40
2023-02-02T14:59:38.615Z,1.30
2023-02-02T15:02:11.631Z,1.30
2023-02-02T15:04:38.500Z,1.30
2023-02-02T15:07:23.550Z,1.30
2023-02-02T15:09:51.867Z,1.30
2023-02-02T15:12:39.745Z,1.30
2023-02-02T15:15:22.699Z,1.30
2023-02-02T15:18:07.775Z,1.30
2023-02-02T15:20:45.322Z,1.30
2023-02-02T15:23:32.928Z,1.30
2023-02-02T15:26:13.514Z,1.30
2023-02-02T15:29:31.799Z,1.30
2023-02-02T15:31:59.850Z,1.30
2023-02-02T15:34:29.506Z,1.30
2023-02-02T15:36:59.949Z,1.20
2023-02-02T15:39:26.789Z,1.20
2023-02-02T15:42:17.041Z,1.20
2023-02-02T15:44:44.218Z,1.10
2023-02-02T15:47:16.924Z,1.10
2023-02-02T15:49:45.322Z,1.10
2023-02-02T15:52:17.022Z,1.10
2023-02-02T15:54:55.795Z,1.10
2023-02-02T15:57:34.806Z,1.00
2023-02-02T16:00:30.630Z,1.00
2023-02-02T16:03:20.853Z,1.00
2023-02-02T16:05:50.457Z,1.10
2023-02-02T16:08:28.039Z,1.00
2023-02-02T16:11:18.579Z,1.00
2023-02-02T16:14:03.144Z,1.00
2023-02-02T16:16:32.721Z,1.00
2023-02-02T16:19:16.437Z,1.00
2023-02-02T16:21:48.806Z,1.00
2023-02-02T16:24:22.833Z,1.00
2023-02-02T16:26:52.704Z,1.00
2023-02-02T16:29:20.501Z,1.00
2023-02-02T16:31:48.961Z,1.00
2023-02-02T16:34:48.989Z,1.00
2023-02-02T16:37:29.436Z,0.90
2023-02-02T16:39:58.107Z,0.90
2023-02-02T16:42:30.346Z,0.90
2023-02-02T16:44:59.341Z,0.90
2023-02-02T16:47:26.067Z,1.00
2023-02-02T16:50:14.858Z,0.90
2023-02-02T16:53:05.802Z,0.90
2023-02-02T16:55:49.339Z,0.90
2023-02-02T16:58:21.679Z,0.80
2023-02-02T17:01:17.797Z,0.90
2023-02-02T17:03:55.066Z,0.80
2023-02-02T17:06:45.784Z,0.90
2023-02-02T17:09:36.020Z,0.80
2023-02-02T17:12:34.172Z,0.80
2023-02-02T17:15:23.126Z,0.80
2023-02-02T17:17:51.715Z,0.70
2023-02-02T17:20:19.255Z,0.80
2023-02-02T17:22:48.454Z,0.80
2023-02-02T17:25:17.968Z,0.80
2023-02-02T17:27:45.563Z,0.80
2023-02-02T17:30:17.794Z,0.80
2023-02-02T17:32:44.598Z,0.80
2023-02-02T17:35:24.849Z,0.70
2023-02-02T17:37:52.749Z,0.70
2023-02-02T17:40:21.761Z,0.70
2023-02-02T17:42:51.284Z,0.70
2023-02-02T17:45:24.309Z,0.80
2023-02-02T17:47:51.505Z,0.70
2023-02-02T17:50:18.947Z,0.70
2023-02-02T17:52:48.231Z,0.80
2023-02-02T17:55:23.449Z,0.80
2023-02-02T17:57:52.733Z,0.80
2023-02-02T18:00:23.110Z,0.90
2023-02-02T18:02:55.797Z,0.80
2023-02-02T18:05:23.889Z,0.90
2023-02-02T18:07:50.832Z,0.90
2023-02-02T18:10:19.231Z,0.90
2023-02-02T18:12:46.068Z,0.90
2023-02-02T18:15:14.517Z,0.90
2023-02-02T18:17:41.717Z,0.90
2023-02-02T18:20:16.065Z,0.80
2023-02-02T18:22:44.217Z,0.80
2023-02-02T18:25:11.470Z,0.80
2023-02-02T18:27:38.284Z,0.80
2023-02-02T18:30:05.688Z,0.80
2023-02-02T18:32:37.431Z,0.80
2023-02-02T18:35:05.648Z,0.80
2023-02-02T18:37:32.539Z,0.70
2023-02-02T18:39:59.304Z,0.70
2023-02-02T18:42:29.884Z,0.60
2023-02-02T18:44:56.893Z,0.70
2023-02-02T18:47:23.732Z,0.70
2023-02-02T18:49:50.544Z,0.70
2023-02-02T18:52:18.973Z,0.70
2023-02-02T18:54:49.304Z,0.70
2023-02-02T18:57:17.016Z,0.70
2023-02-02T18:59:44.143Z,0.70
2023-02-02T19:02:15.452Z,0.80
2023-02-02T19:05:01.158Z,0.80
2023-02-02T19:07:46.572Z,0.80
2023-02-02T19:10:13.509Z,0.80
2023-02-02T19:12:40.883Z,0.80
2023-02-02T19:15:13.113Z,0.80
2023-02-02T19:17:40.903Z,0.80
2023-02-02T19:20:29.020Z,0.80
2023-02-02T19:23:02.475Z,0.80
2023-02-02T19:25:29.467Z,0.80
2023-02-02T19:27:56.475Z,0.70
2023-02-02T19:30:23.970Z,0.70
2023-02-02T19:32:51.092Z,0.70
2023-02-02T19:35:24.335Z,0.70
2023-02-02T19:37:59.081Z,0.70
2023-02-02T19:40:26.322Z,0.60
2023-02-02T19:43:04.457Z,0.70
2023-02-02T19:45:35.184Z,0.70
2023-02-02T19:48:18.962Z,0.70
2023-02-02T19:50:46.534Z,0.70
2023-02-02T19:53:20.490Z,0.70
2023-02-02T19:55:47.870Z,0.70
2023-02-02T19:58:26.566Z,0.70
2023-02-02T20:00:55.699Z,0.70
2023-02-02T20:03:43.103Z,0.70
2023-02-02T20:06:17.127Z,0.80
2023-02-02T20:08:44.167Z,0.80
2023-02-02T20:11:23.419Z,0.80
2023-02-02T20:13:51.533Z,0.80
2023-02-02T20:16:21.071Z,0.80
2023-02-02T20:18:50.757Z,0.80
2023-02-02T20:21:36.301Z,0.90
2023-02-02T20:24:03.654Z,0.90
2023-02-02T20:26:35.786Z,0.90
2023-02-02T20:29:14.013Z,0.80
2023-02-02T20:31:41.056Z,0.80
2023-02-02T20:34:25.065Z,0.80
2023-02-02T20:37:22.754Z,0.80
2023-02-02T20:40:01.080Z,0.80
2023-02-02T20:42:28.979Z,0.80
2023-02-02T20:44:56.335Z,0.80
2023-02-02T20:47:23.049Z,0.80
2023-02-02T20:49:49.990Z,0.80
2023-02-02T20:52:23.479Z,0.80
2023-02-02T20:54:51.775Z,0.80
2023-02-02T20:57:19.038Z,0.90
2023-02-02T20:59:45.781Z,0.80
2023-02-02T21:02:20.886Z,0.80
2023-02-02T21:04:48.693Z,0.80
2023-02-02T21:07:17.307Z,0.90
2023-02-02T21:09:45.155Z,0.80
2023-02-02T21:12:12.080Z,0.80
2023-02-02T21:14:38.986Z,0.80
2023-02-02T21:17:14.961Z,0.80
2023-02-02T21:19:43.432Z,0.80
2023-02-02T21:22:10.971Z,0.80
2023-02-02T21:24:38.021Z,0.80
2023-02-02T21:27:04.905Z,0.80
2023-02-02T21:29:32.691Z,0.80
2023-02-02T21:32:02.129Z,0.80
2023-02-02T21:34:30.680Z,0.80
2023-02-02T21:36:58.509Z,0.80
2023-02-02T21:39:36.441Z,0.80
2023-02-02T21:42:09.050Z,0.80
2023-02-02T21:44:38.607Z,0.80
2023-02-02T21:47:32.272Z,0.80
2023-02-02T21:50:19.270Z,0.80
2023-02-02T21:52:46.763Z,0.80
2023-02-02T21:55:22.110Z,0.80
2023-02-02T21:57:48.885Z,0.80
2023-02-02T22:00:30.805Z,0.80
2023-02-02T22:02:58.973Z,0.80
2023-02-02T22:05:36.583Z,0.80
2023-02-02T22:08:21.115Z,0.80
2023-02-02T22:10:47.924Z,0.80
2023-02-02T22:13:20.325Z,0.80
2023-02-02T22:15:49.021Z,0.80
2023-02-02T22:18:26.285Z,0.80
2023-02-02T22:20:56.217Z,0.80
2023-02-02T22:23:26.633Z,0.80
2023-02-02T22:25:57.725Z,0.80
2023-02-02T22:28:27.237Z,0.80
2023-02-02T22:30:55.753Z,0.70
2023-02-02T22:33:23.665Z,0.80
2023-02-02T22:35:50.673Z,0.70
2023-02-02T22:38:19.681Z,0.80
2023-02-02T22:40:47.039Z,0.80
2023-02-02T22:43:16.219Z,0.80
2023-02-02T22:45:44.529Z,0.80
2023-02-02T22:48:12.943Z,0.80
2023-02-02T22:50:40.723Z,0.80
2023-02-02T22:53:07.499Z,0.80
2023-02-02T22:55:34.413Z,0.80
2023-02-02T22:58:01.139Z,0.80
2023-02-02T23:00:30.688Z,0.80
2023-02-02T23:02:57.553Z,0.80
2023-02-02T23:05:25.923Z,0.80
2023-02-02T23:07:53.739Z,0.80
2023-02-02T23:10:24.801Z,0.90
2023-02-02T23:12:53.875Z,0.90
2023-02-02T23:15:21.082Z,0.90
2023-02-02T23:17:47.933Z,0.90
2023-02-02T23:20:15.909Z,0.90
2023-02-02T23:22:43.163Z,0.90
2023-02-02T23:25:10.866Z,0.80
2023-02-02T23:27:37.828Z,0.80
2023-02-02T23:30:07.363Z,0.80
2023-02-02T23:32:34.757Z,0.80
2023-02-02T23:35:01.578Z,0.80
2023-02-02T23:37:28.692Z,0.80
2023-02-02T23:39:55.443Z,0.80
2023-02-02T23:42:22.249Z,0.80
2023-02-02T23:44:49.010Z,0.90
2023-02-02T23:47:16.075Z,0.90
2023-02-02T23:49:43.311Z,0.90
2023-02-02T23:52:10.469Z,0.90
2023-02-02T23:54:37.547Z,1.00
2023-02-02T23:57:04.842Z,1.00
2023-02-02T23:59:31.578Z,1.00
